MHLM/SAP METAR and TAF weather

Enter ICAO airport designator
Station Type Date Time Source
MHLM METAR 2019/08/26 06:00 UTC NOAA

MHLM 260600Z 15005KT 9999 FEW026 BKN250 27/24 Q1011 A2986 NOSIG


Station Type Date Time Source
MHLM Decoded METAR 2019/08/26 06:00 UTC NOAA

Station name not available
Aug 26, 2019 - 02:00 AM EDT / 2019.08.26 0600 UTC
Wind: from the SSE (150 degrees) at 6 MPH (5 KT):0
Visibility: greater than 7 mile(s):0
Sky conditions: mostly cloudy
Temperature: 80 F (27 C)
Dew Point: 75 F (24 C)
Relative Humidity: 83%
Pressure (altimeter): 29.86 in. Hg (1011 hPa)
ob: MHLM 260600Z 15005KT 9999 FEW026 BKN250 27/24 Q1011 A2986 NOSIG
cycle: 6

Station Type Date Time Source
MHLM TAF 2019/08/26 06:33 UTC NOAA

TAF MHLM 260425Z 2606/2706 15005KT 9999 SCT026 TX35/2620Z TN24/2612Z
BECMG 2610/2612 23004KT FEW028
BECMG 2618/2620 05008KT FEW030 TCU
BECMG 2701/2703 15003KT

Example: see airport list